Time;durP1;ratioP1;P1;durP2;ratioP2;P2;SDS_P1;SDS_P2;PMS_P1;PMS_P2;Temp;Humidity;BMP_temperature;BMP_pressure;BME280_temperature;BME280_humidity;BME280_pressure;Samples;Min_cycle;Max_cycle;Signal;HPM_P1;HPM_P2
2022/12/23 00:01:46;;;;;;;0.40;0.40;;;14.70;91.30;;;;;;4994136;28;20203;-67
2022/12/23 00:04:36;;;;;;;0.40;0.40;;;14.70;91.30;;;;;;4994249;28;20668;-67
2022/12/23 00:07:24;;;;;;;0.40;0.40;;;14.80;91.30;;;;;;4994173;28;20273;-66
2022/12/23 00:10:12;;;;;;;0.40;0.40;;;14.70;91.30;;;;;;5022847;28;20372;-66
2022/12/23 00:16:09;;;;;;;0.40;0.40;;;14.70;91.40;;;;;;5033478;28;20230;-69
2022/12/23 00:18:57;;;;;;;0.40;0.40;;;14.70;91.30;;;;;;5033031;28;20312;-67
2022/12/23 00:21:47;;;;;;;0.40;0.40;;;14.70;91.40;;;;;;5033588;28;20804;-67
2022/12/23 00:24:35;;;;;;;0.40;0.40;;;14.70;91.40;;;;;;5034239;28;20202;-67
2022/12/23 00:27:23;;;;;;;0.40;0.40;;;14.80;91.50;;;;;;5033748;28;20336;-67
2022/12/23 00:30:12;;;;;;;0.40;0.40;;;14.80;91.40;;;;;;5033416;28;20226;-66
2022/12/23 00:33:00;;;;;;;0.40;0.40;;;14.80;91.40;;;;;;5032928;28;20292;-71
2022/12/23 00:35:48;;;;;;;0.40;0.40;;;14.80;91.40;;;;;;5034720;28;20221;-70
2022/12/23 00:44:49;;;;;;;0.40;0.40;;;14.80;91.40;;;;;;5033154;28;20208;-67
2022/12/23 00:50:43;;;;;;;0.40;0.40;;;14.80;91.30;;;;;;5032913;28;20205;-67
2022/12/23 00:53:31;;;;;;;0.40;0.40;;;14.80;91.30;;;;;;5034206;28;20279;-67
2022/12/23 00:56:21;;;;;;;0.40;0.40;;;14.80;91.40;;;;;;5035058;28;20965;-67
2022/12/23 00:59:09;;;;;;;0.40;0.40;;;14.80;91.40;;;;;;5034382;28;20222;-66
2022/12/23 01:08:11;;;;;;;0.40;0.40;;;14.70;91.30;;;;;;5032692;28;20265;-68
2022/12/23 01:11:03;;;;;;;0.40;0.40;;;14.80;91.40;;;;;;5033132;28;20205;-67
2022/12/23 01:13:53;;;;;;;0.40;0.40;;;14.70;91.00;;;;;;5033058;28;20197;-67
2022/12/23 01:16:41;;;;;;;1.13;1.13;;;14.70;91.30;;;;;;5031942;28;20297;-67
2022/12/23 01:19:29;;;;;;;0.40;0.40;;;14.70;91.30;;;;;;5032059;28;20524;-70
2022/12/23 01:22:17;;;;;;;0.40;0.40;;;14.70;91.30;;;;;;5032026;28;20198;-68
2022/12/23 01:25:06;;;;;;;0.40;0.40;;;14.70;91.30;;;;;;5032410;28;20206;-69
2022/12/23 01:27:54;;;;;;;0.40;0.40;;;14.70;91.30;;;;;;5033658;28;20268;-66
2022/12/23 01:30:44;;;;;;;0.40;0.40;;;14.70;91.30;;;;;;5035379;28;20697;-66
2022/12/23 01:33:33;;;;;;;0.40;0.40;;;14.70;91.40;;;;;;5035912;28;20205;-68
2022/12/23 01:36:21;;;;;;;0.40;0.40;;;14.70;91.40;;;;;;5037153;28;20429;-67
2022/12/23 01:39:09;;;;;;;0.40;0.40;;;14.70;91.40;;;;;;5037376;28;20283;-67
2022/12/23 01:45:10;;;;;;;0.50;0.50;;;14.70;91.30;;;;;;5036164;28;20524;-66
2022/12/23 01:48:04;;;;;;;0.40;0.40;;;14.70;91.40;;;;;;5035504;28;20311;-68
2022/12/23 01:50:58;;;;;;;0.40;0.40;;;14.70;91.40;;;;;;5036206;28;20245;-66
2022/12/23 01:53:50;;;;;;;0.40;0.40;;;14.70;91.40;;;;;;5036960;28;20198;-67
2022/12/23 01:56:39;;;;;;;0.40;0.40;;;14.70;91.40;;;;;;5036189;28;20256;-67
2022/12/23 02:05:44;;;;;;;0.40;0.40;;;14.80;91.40;;;;;;5029871;28;20709;-70
2022/12/23 02:11:53;;;;;;;0.40;0.40;;;14.80;91.30;;;;;;5035593;28;20193;-67
2022/12/23 02:18:19;;;;;;;0.40;0.40;;;14.80;91.30;;;;;;5018836;28;20305;-66
2022/12/23 02:21:23;;;;;;;0.40;0.40;;;14.80;91.30;;;;;;5034935;28;20667;-67
2022/12/23 02:24:40;;;;;;;0.40;0.40;;;14.80;91.30;;;;;;5035291;28;20701;-66
2022/12/23 02:27:31;;;;;;;0.40;0.40;;;14.80;91.20;;;;;;5035953;28;20217;-68
2022/12/23 02:30:38;;;;;;;0.40;0.40;;;14.80;91.30;;;;;;5035139;28;20245;-67
2022/12/23 02:33:39;;;;;;;0.40;0.40;;;14.80;91.60;;;;;;5035347;28;20670;-67
2022/12/23 02:36:36;;;;;;;0.40;0.40;;;14.80;91.20;;;;;;5035661;28;20348;-67
2022/12/23 02:39:35;;;;;;;0.40;0.40;;;14.80;91.30;;;;;;5036037;28;20233;-67
2022/12/23 02:42:29;;;;;;;0.40;0.40;;;14.80;91.30;;;;;;5035210;28;20663;-68
2022/12/23 02:45:24;;;;;;;0.40;0.40;;;14.70;91.20;;;;;;5035120;28;20294;-67
2022/12/23 02:48:20;;;;;;;0.40;0.40;;;14.70;91.30;;;;;;5035702;28;20301;-67
2022/12/23 02:51:10;;;;;;;0.40;0.40;;;14.70;91.20;;;;;;5035112;28;20452;-67
2022/12/23 02:54:02;;;;;;;0.40;0.40;;;14.70;91.30;;;;;;5035802;28;20668;-67
2022/12/23 02:56:54;;;;;;;0.40;0.40;;;14.70;91.30;;;;;;5035130;28;20209;-68
2022/12/23 02:59:46;;;;;;;0.40;0.40;;;14.70;91.30;;;;;;5030232;28;20796;-67
2022/12/23 03:02:37;;;;;;;0.90;0.90;;;14.70;91.30;;;;;;5035828;28;20190;-68
2022/12/23 03:05:31;;;;;;;0.40;0.40;;;14.70;91.30;;;;;;5034965;28;20194;-70
2022/12/23 03:08:25;;;;;;;0.40;0.40;;;14.70;91.10;;;;;;5034395;28;20364;-67
2022/12/23 03:11:15;;;;;;;0.40;0.40;;;14.70;91.40;;;;;;5035272;28;20201;-66
2022/12/23 03:14:27;;;;;;;0.40;0.40;;;14.70;91.30;;;;;;5034071;28;20286;-68
2022/12/23 03:17:28;;;;;;;0.73;0.73;;;14.70;91.30;;;;;;5035223;28;20201;-69
2022/12/23 03:20:24;;;;;;;0.40;0.40;;;14.80;91.70;;;;;;5033742;28;20217;-68
2022/12/23 03:23:21;;;;;;;0.40;0.40;;;14.80;91.30;;;;;;5034813;28;20421;-67
2022/12/23 03:26:14;;;;;;;0.40;0.40;;;14.80;91.30;;;;;;5034888;28;20198;-67
2022/12/23 03:29:08;;;;;;;0.60;0.60;;;14.80;91.30;;;;;;5035252;28;20658;-66
2022/12/23 03:32:00;;;;;;;0.40;0.40;;;14.80;91.30;;;;;;5034805;28;20435;-67
2022/12/23 03:34:52;;;;;;;0.40;0.40;;;14.80;91.20;;;;;;5035082;28;20516;-67
2022/12/23 03:37:46;;;;;;;0.40;0.40;;;14.80;91.30;;;;;;5035166;28;20284;-67
2022/12/23 03:40:38;;;;;;;0.40;0.40;;;14.80;91.30;;;;;;5034041;28;20720;-67
2022/12/23 03:43:33;;;;;;;0.40;0.40;;;14.80;91.20;;;;;;5034243;28;20432;-66
2022/12/23 03:46:25;;;;;;;0.40;0.40;;;14.80;91.30;;;;;;5034689;28;20281;-66
2022/12/23 03:49:17;;;;;;;0.40;0.40;;;14.80;91.20;;;;;;5033947;28;20848;-69
2022/12/23 03:52:09;;;;;;;0.40;0.40;;;14.80;91.30;;;;;;5034175;28;20308;-66
2022/12/23 03:55:11;;;;;;;0.40;0.40;;;14.80;91.30;;;;;;5033315;28;20679;-67
2022/12/23 03:58:06;;;;;;;0.40;0.40;;;14.80;91.20;;;;;;5033304;28;20202;-67
2022/12/23 04:01:01;;;;;;;0.40;0.40;;;14.80;91.20;;;;;;5034399;28;20628;-67
2022/12/23 04:03:55;;;;;;;0.40;0.40;;;14.80;91.20;;;;;;5032745;28;20750;-67
2022/12/23 04:06:50;;;;;;;0.40;0.40;;;14.80;91.20;;;;;;5032962;28;20433;-67
2022/12/23 04:09:39;;;;;;;0.40;0.40;;;14.80;91.20;;;;;;5032220;28;20430;-67
2022/12/23 04:12:30;;;;;;;0.90;0.90;;;14.70;91.30;;;;;;5026995;28;20272;-68
2022/12/23 04:15:24;;;;;;;0.40;0.40;;;14.70;91.20;;;;;;5033919;28;20431;-66
2022/12/23 04:18:12;;;;;;;0.40;0.40;;;14.70;91.30;;;;;;5034231;28;20202;-66
2022/12/23 04:21:00;;;;;;;0.40;0.40;;;14.70;91.20;;;;;;5033831;28;20425;-66
2022/12/23 04:23:48;;;;;;;0.40;0.40;;;14.70;91.30;;;;;;5034168;28;20260;-68
2022/12/23 04:26:36;;;;;;;0.40;0.40;;;14.70;91.30;;;;;;5034161;28;20202;-67
2022/12/23 04:29:24;;;;;;;0.40;0.40;;;14.70;91.30;;;;;;5033422;28;20645;-66
2022/12/23 04:32:13;;;;;;;0.40;0.40;;;14.70;91.30;;;;;;5033390;28;20640;-66
2022/12/23 04:35:02;;;;;;;0.40;0.40;;;14.70;91.30;;;;;;5033732;28;20227;-67
2022/12/23 04:37:50;;;;;;;0.40;0.40;;;14.70;91.30;;;;;;5034239;28;20421;-67
2022/12/23 04:40:37;;;;;;;0.40;0.40;;;14.70;91.30;;;;;;5033466;28;20683;-67
2022/12/23 04:43:25;;;;;;;0.40;0.40;;;14.70;91.40;;;;;;5033439;28;20280;-67
2022/12/23 04:46:13;;;;;;;0.40;0.40;;;14.70;91.40;;;;;;5033762;28;20681;-67
2022/12/23 04:49:03;;;;;;;0.40;0.40;;;14.70;91.30;;;;;;5034056;28;20465;-68
2022/12/23 04:51:51;;;;;;;0.50;0.50;;;14.70;91.30;;;;;;5033819;28;20738;-67
2022/12/23 04:54:39;;;;;;;0.40;0.40;;;14.80;91.40;;;;;;5033570;28;20590;-68
2022/12/23 04:57:33;;;;;;;0.40;0.40;;;14.80;91.40;;;;;;5033561;28;20607;-68
2022/12/23 05:00:21;;;;;;;0.40;0.40;;;14.80;91.30;;;;;;5031652;28;21037;-66
2022/12/23 05:03:09;;;;;;;0.60;0.60;;;14.80;91.30;;;;;;5033231;28;20712;-70
2022/12/23 05:05:59;;;;;;;0.40;0.40;;;14.80;91.30;;;;;;5031444;28;20421;-68
2022/12/23 05:08:47;;;;;;;0.40;0.40;;;14.80;91.10;;;;;;5059520;22;20596;-62
2022/12/23 05:11:35;;;;;;;0.40;0.40;;;14.80;91.00;;;;;;5051322;28;20286;-62
2022/12/23 05:14:29;;;;;;;0.40;0.40;;;14.80;91.30;;;;;;5050864;28;20202;-63
2022/12/23 05:17:17;;;;;;;0.40;0.40;;;14.80;91.20;;;;;;5052446;28;20692;-63
2022/12/23 05:20:06;;;;;;;0.40;0.40;;;14.80;91.30;;;;;;5051889;28;20436;-63
2022/12/23 05:22:55;;;;;;;0.90;0.90;;;14.80;91.30;;;;;;5051532;28;20463;-65
2022/12/23 05:25:43;;;;;;;0.40;0.40;;;14.80;91.60;;;;;;5052258;28;20211;-65
2022/12/23 05:28:31;;;;;;;0.40;0.40;;;14.80;91.20;;;;;;5052194;28;20201;-63
2022/12/23 05:31:20;;;;;;;0.40;0.40;;;14.90;91.30;;;;;;5052975;28;20452;-63
2022/12/23 05:34:08;;;;;;;0.40;0.40;;;14.90;91.30;;;;;;5052236;28;20201;-63
2022/12/23 05:36:56;;;;;;;0.40;0.40;;;14.90;91.30;;;;;;5053260;28;20286;-63
2022/12/23 05:39:45;;;;;;;0.40;0.40;;;14.80;91.20;;;;;;5052063;28;20254;-63
2022/12/23 05:42:33;;;;;;;0.40;0.40;;;14.90;91.30;;;;;;5052512;28;20680;-63
2022/12/23 05:45:21;;;;;;;0.40;0.40;;;14.80;91.30;;;;;;5051461;28;20285;-63
2022/12/23 05:48:10;;;;;;;0.40;0.40;;;14.80;91.60;;;;;;5063245;28;20232;-63
2022/12/23 05:50:58;;;;;;;0.40;0.40;;;14.80;91.30;;;;;;5072509;28;20228;-63
2022/12/23 05:53:46;;;;;;;0.40;0.40;;;14.80;91.30;;;;;;5072111;28;20279;-63
2022/12/23 05:56:36;;;;;;;0.40;0.40;;;14.80;91.30;;;;;;5058150;28;20241;-63
2022/12/23 05:59:24;;;;;;;0.40;0.40;;;14.70;91.20;;;;;;5052341;28;20440;-63
2022/12/23 06:02:19;;;;;;;0.50;0.50;;;14.80;91.30;;;;;;5051810;28;20205;-65
2022/12/23 06:05:08;;;;;;;0.50;0.50;;;14.80;91.40;;;;;;5052657;28;20416;-65
2022/12/23 06:07:56;;;;;;;2.70;2.60;;;14.80;91.40;;;;;;5051838;28;20206;-65
2022/12/23 06:10:44;;;;;;;0.40;0.40;;;14.80;91.40;;;;;;5051916;28;20472;-65
2022/12/23 06:13:33;;;;;;;0.40;0.40;;;14.80;91.40;;;;;;5051532;28;20288;-65
2022/12/23 06:16:21;;;;;;;0.40;0.40;;;14.90;91.40;;;;;;5052303;28;20697;-65
2022/12/23 06:19:09;;;;;;;0.40;0.40;;;14.80;91.30;;;;;;5055479;28;20809;-65
2022/12/23 06:21:57;;;;;;;0.40;0.40;;;14.80;91.40;;;;;;5055468;28;20295;-65
2022/12/23 06:24:45;;;;;;;0.40;0.40;;;14.80;91.40;;;;;;5055887;28;20286;-65
2022/12/23 06:27:33;;;;;;;0.40;0.40;;;14.80;91.40;;;;;;5054876;28;20202;-65
2022/12/23 06:30:23;;;;;;;2.10;2.00;;;14.80;91.50;;;;;;5055368;28;20768;-65
2022/12/23 06:33:11;;;;;;;0.40;0.40;;;14.80;91.50;;;;;;5055404;28;20280;-65
2022/12/23 06:35:59;;;;;;;0.40;0.40;;;14.80;91.50;;;;;;5055590;28;20197;-65
2022/12/23 06:38:47;;;;;;;0.40;0.40;;;14.80;91.50;;;;;;5055853;28;20302;-65
2022/12/23 06:41:35;;;;;;;0.40;0.40;;;14.80;91.50;;;;;;5055829;28;20276;-65
2022/12/23 06:44:23;;;;;;;0.40;0.40;;;14.80;91.50;;;;;;5055372;28;20259;-65
2022/12/23 06:47:12;;;;;;;0.40;0.40;;;14.80;91.50;;;;;;5054302;28;20575;-65
2022/12/23 06:50:00;;;;;;;0.40;0.40;;;14.80;91.60;;;;;;5054931;28;20253;-65
2022/12/23 06:52:48;;;;;;;0.40;0.40;;;14.80;91.60;;;;;;5055097;28;20272;-65
2022/12/23 06:55:36;;;;;;;0.40;0.40;;;14.80;91.60;;;;;;5055692;28;20198;-65
2022/12/23 06:58:24;;;;;;;0.40;0.40;;;14.80;91.70;;;;;;5054494;28;20201;-65
2022/12/23 07:01:12;;;;;;;0.40;0.40;;;14.80;91.70;;;;;;5054913;28;20456;-65
2022/12/23 07:04:02;;;;;;;0.40;0.40;;;14.70;91.60;;;;;;5054728;28;20280;-65
2022/12/23 07:06:50;;;;;;;0.40;0.40;;;14.80;91.70;;;;;;5053820;28;20229;-65
2022/12/23 07:09:38;;;;;;;0.50;0.50;;;14.70;91.60;;;;;;5054264;28;20371;-65
2022/12/23 07:12:26;;;;;;;0.40;0.40;;;14.70;91.70;;;;;;5053674;28;20236;-65
2022/12/23 07:15:14;;;;;;;0.40;0.40;;;14.70;91.70;;;;;;5053522;28;20233;-65
2022/12/23 07:18:02;;;;;;;0.40;0.40;;;14.80;91.70;;;;;;5054449;28;20424;-65
2022/12/23 07:20:52;;;;;;;0.40;0.40;;;14.80;91.70;;;;;;5054957;28;20300;-65
2022/12/23 07:23:40;;;;;;;0.40;0.40;;;14.70;91.70;;;;;;5054175;28;20197;-65
2022/12/23 07:26:28;;;;;;;0.40;0.40;;;14.70;91.70;;;;;;5054751;28;20229;-65
2022/12/23 07:29:16;;;;;;;0.40;0.40;;;14.70;91.70;;;;;;5052797;28;20217;-65
2022/12/23 07:32:04;;;;;;;0.40;0.40;;;14.70;91.70;;;;;;5054396;28;20752;-65
2022/12/23 07:34:52;;;;;;;0.40;0.40;;;14.80;91.70;;;;;;5053368;28;20240;-65
2022/12/23 07:37:42;;;;;;;0.40;0.40;;;14.70;91.70;;;;;;5053896;28;20205;-65
2022/12/23 07:40:30;;;;;;;0.40;0.40;;;14.70;91.70;;;;;;5054015;28;20292;-65
2022/12/23 07:43:18;;;;;;;1.48;1.48;;;14.90;91.80;;;;;;5053842;28;20678;-65
2022/12/23 07:46:07;;;;;;;0.40;0.40;;;14.80;91.70;;;;;;5054048;28;20708;-65
2022/12/23 07:48:55;;;;;;;0.40;0.40;;;14.80;91.60;;;;;;5053279;28;20616;-65
2022/12/23 07:51:43;;;;;;;0.40;0.40;;;14.80;91.80;;;;;;5054103;28;20225;-65
2022/12/23 07:54:33;;;;;;;0.40;0.40;;;14.80;91.70;;;;;;5054042;28;20267;-65
2022/12/23 07:57:21;;;;;;;0.40;0.40;;;14.80;91.70;;;;;;5053539;28;20276;-65
2022/12/23 08:00:11;;;;;;;0.40;0.40;;;14.80;91.70;;;;;;5053666;28;20292;-65
2022/12/23 08:02:59;;;;;;;0.40;0.40;;;14.80;91.80;;;;;;5052632;28;20217;-65
2022/12/23 08:05:47;;;;;;;0.40;0.40;;;14.80;91.80;;;;;;5053521;28;20205;-65
2022/12/23 08:08:35;;;;;;;0.40;0.40;;;14.80;91.80;;;;;;5052551;28;20523;-65
2022/12/23 08:11:25;;;;;;;0.40;0.40;;;14.80;91.80;;;;;;5053277;28;20694;-65
2022/12/23 08:14:13;;;;;;;0.40;0.40;;;14.80;91.80;;;;;;5053403;28;20198;-65
2022/12/23 08:17:01;;;;;;;0.40;0.40;;;14.70;91.90;;;;;;5053244;28;20931;-65
2022/12/23 08:19:49;;;;;;;0.40;0.40;;;14.70;91.80;;;;;;5052432;28;20233;-65
2022/12/23 08:22:37;;;;;;;0.40;0.40;;;14.80;91.70;;;;;;5052948;28;20204;-65
2022/12/23 08:25:25;;;;;;;0.40;0.40;;;14.70;91.70;;;;;;5053367;28;20312;-65
2022/12/23 08:28:15;;;;;;;0.40;0.40;;;14.70;91.80;;;;;;5052667;28;20205;-65
2022/12/23 08:31:05;;;;;;;0.40;0.40;;;14.70;91.80;;;;;;5052959;28;20764;-64
2022/12/23 08:33:55;;;;;;;0.40;0.40;;;14.70;91.80;;;;;;5052148;28;20293;-65
2022/12/23 08:36:43;;;;;;;0.40;0.40;;;14.70;91.70;;;;;;5053118;28;20197;-64
2022/12/23 08:39:31;;;;;;;0.40;0.40;;;14.70;91.70;;;;;;5051732;28;20693;-65
2022/12/23 08:42:19;;;;;;;0.40;0.40;;;14.70;91.90;;;;;;5051988;28;20526;-64
2022/12/23 08:45:09;;;;;;;0.40;0.40;;;14.70;91.80;;;;;;5052958;28;20281;-64
2022/12/23 08:47:58;;;;;;;0.40;0.40;;;14.70;91.80;;;;;;5052683;28;20201;-65
2022/12/23 08:50:46;;;;;;;0.40;0.40;;;14.70;91.80;;;;;;5053309;28;20229;-64
2022/12/23 08:53:35;;;;;;;0.40;0.40;;;14.70;91.90;;;;;;5052957;28;20332;-64
2022/12/23 08:56:25;;;;;;;0.40;0.40;;;14.80;91.90;;;;;;5054171;28;20568;-64
2022/12/23 08:59:15;;;;;;;0.40;0.40;;;14.80;92.00;;;;;;5051880;28;20220;-64
2022/12/23 09:02:09;;;;;;;0.40;0.40;;;14.80;91.90;;;;;;5053125;28;20193;-64
2022/12/23 09:04:57;;;;;;;0.40;0.40;;;14.80;91.90;;;;;;5053662;28;20288;-65
2022/12/23 09:07:45;;;;;;;0.60;0.60;;;14.80;91.90;;;;;;5051822;28;20197;-65
2022/12/23 09:10:34;;;;;;;6.23;2.40;;;14.80;91.90;;;;;;5051806;28;21003;-65
2022/12/23 09:13:22;;;;;;;0.40;0.40;;;14.80;91.90;;;;;;5051545;28;20428;-65
2022/12/23 09:16:22;;;;;;;0.40;0.40;;;14.90;91.90;;;;;;5052856;28;20200;-64
2022/12/23 09:19:11;;;;;;;0.40;0.40;;;14.80;92.00;;;;;;5051754;28;20217;-64
2022/12/23 09:22:00;;;;;;;0.40;0.40;;;14.90;91.90;;;;;;5054736;28;20233;-65
2022/12/23 09:24:48;;;;;;;0.40;0.40;;;14.90;91.90;;;;;;5052615;28;20213;-64
2022/12/23 09:27:36;;;;;;;0.40;0.40;;;14.90;91.80;;;;;;5051480;28;20255;-65
2022/12/23 09:30:24;;;;;;;0.40;0.40;;;14.90;91.80;;;;;;5052396;28;20221;-65
2022/12/23 09:33:12;;;;;;;0.83;0.83;;;14.80;91.70;;;;;;5052325;28;20304;-65
2022/12/23 09:36:03;;;;;;;0.40;0.40;;;14.80;91.70;;;;;;5052160;28;20712;-65
2022/12/23 09:38:55;;;;;;;0.40;0.40;;;14.80;91.90;;;;;;5052187;28;20251;-65
2022/12/23 09:41:54;;;;;;;0.40;0.40;;;14.90;92.00;;;;;;5052188;28;20208;-65
2022/12/23 09:44:54;;;;;;;0.40;0.40;;;14.90;91.90;;;;;;5052061;28;20690;-65
2022/12/23 09:47:44;;;;;;;0.40;0.40;;;14.90;91.90;;;;;;5052057;28;20201;-65
2022/12/23 09:50:34;;;;;;;0.40;0.40;;;14.80;91.80;;;;;;5052829;28;20217;-65
2022/12/23 09:53:31;;;;;;;0.40;0.40;;;14.80;91.80;;;;;;5059905;28;20280;-65
2022/12/23 09:56:27;;;;;;;0.40;0.40;;;14.80;91.90;;;;;;5076818;28;20206;-65
2022/12/23 09:59:25;;;;;;;0.40;0.40;;;14.80;91.90;;;;;;5076954;28;20205;-64
2022/12/23 10:02:23;;;;;;;0.40;0.40;;;14.80;91.90;;;;;;5066141;28;20196;-64
2022/12/23 10:05:22;;;;;;;0.40;0.40;;;14.80;91.90;;;;;;5055430;28;20197;-65
2022/12/23 10:08:15;;;;;;;0.40;0.40;;;14.80;91.90;;;;;;5056267;28;20690;-65
2022/12/23 10:11:13;;;;;;;0.40;0.40;;;14.80;91.90;;;;;;5054314;28;20327;-64
2022/12/23 10:14:08;;;;;;;0.40;0.40;;;14.80;91.80;;;;;;5055218;28;20580;-65
2022/12/23 10:16:59;;;;;;;0.40;0.40;;;14.80;91.90;;;;;;5054857;28;20282;-65
2022/12/23 10:19:49;;;;;;;0.40;0.40;;;14.80;92.00;;;;;;5054816;28;20217;-64
2022/12/23 10:22:40;;;;;;;0.40;0.40;;;14.80;91.90;;;;;;5054902;28;20263;-65
2022/12/23 10:25:35;;;;;;;0.40;0.40;;;14.80;91.90;;;;;;5055799;28;20205;-65
2022/12/23 10:28:24;;;;;;;0.40;0.40;;;14.90;91.90;;;;;;5055072;28;20212;-65
2022/12/23 10:31:19;;;;;;;0.40;0.40;;;14.80;91.80;;;;;;5054531;28;20568;-65
2022/12/23 10:34:36;;;;;;;0.40;0.40;;;14.80;91.80;;;;;;5055401;28;20220;-65
2022/12/23 10:37:32;;;;;;;0.40;0.40;;;14.80;91.90;;;;;;5055008;28;20197;-65
2022/12/23 10:40:26;;;;;;;0.40;0.40;;;14.90;91.90;;;;;;5053846;28;20229;-65
2022/12/23 10:43:22;;;;;;;0.40;0.40;;;14.80;91.90;;;;;;5054810;28;20198;-65
2022/12/23 10:46:19;;;;;;;0.40;0.40;;;14.80;91.90;;;;;;5054614;28;20284;-65
2022/12/23 10:49:16;;;;;;;0.40;0.40;;;14.90;91.90;;;;;;5054973;28;20221;-65
2022/12/23 10:52:10;;;;;;;0.40;0.40;;;14.80;91.90;;;;;;5055213;28;20300;-65
2022/12/23 10:54:58;;;;;;;0.40;0.40;;;14.80;92.00;;;;;;5054324;28;20638;-65
2022/12/23 10:57:46;;;;;;;0.40;0.40;;;14.80;91.90;;;;;;5055108;28;20193;-65
2022/12/23 11:00:38;;;;;;;0.40;0.40;;;14.80;91.80;;;;;;5053427;28;20218;-65
2022/12/23 11:03:32;;;;;;;0.40;0.40;;;14.80;91.80;;;;;;5054470;28;20193;-65
2022/12/23 11:06:22;;;;;;;0.40;0.40;;;14.80;91.90;;;;;;5054187;28;20970;-65
2022/12/23 11:09:16;;;;;;;0.40;0.40;;;14.80;94.30;;;;;;5079736;22;20240;-67
2022/12/23 11:12:06;;;;;;;0.40;0.40;;;14.80;91.90;;;;;;5034971;28;20229;-67
2022/12/23 11:14:57;;;;;;;1.17;1.17;;;14.80;92.00;;;;;;5035569;28;20671;-69
2022/12/23 11:17:58;;;;;;;0.40;0.40;;;14.80;92.00;;;;;;5035290;28;20206;-67
2022/12/23 11:21:02;;;;;;;0.40;0.40;;;14.80;92.00;;;;;;5035372;28;20278;-68
2022/12/23 11:24:14;;;;;;;0.40;0.40;;;14.80;92.00;;;;;;5035858;28;20261;-70
2022/12/23 11:27:04;;;;;;;0.40;0.40;;;14.80;92.00;;;;;;5035911;28;20638;-67
2022/12/23 11:29:54;;;;;;;0.40;0.40;;;14.80;92.00;;;;;;5034536;28;20307;-67
2022/12/23 11:32:42;;;;;;;0.40;0.40;;;13.60;91.50;;;;;;5035547;28;20305;-68
2022/12/23 11:35:32;;;;;;;0.40;0.40;;;14.80;92.10;;;;;;5035152;28;20700;-67
2022/12/23 11:38:21;;;;;;;0.40;0.40;;;14.80;92.10;;;;;;5035378;28;20763;-67
2022/12/23 11:41:09;;;;;;;0.40;0.40;;;14.90;92.00;;;;;;5034933;28;20226;-68
2022/12/23 11:44:03;;;;;;;2.23;1.63;;;14.70;91.90;;;;;;5035519;28;20632;-67
2022/12/23 11:46:52;;;;;;;0.40;0.40;;;14.90;92.00;;;;;;5035554;28;20209;-67
2022/12/23 11:49:48;;;;;;;0.60;0.60;;;15.00;92.00;;;;;;5033718;28;20724;-67
2022/12/23 11:52:36;;;;;;;0.40;0.40;;;14.90;92.00;;;;;;5035041;28;20300;-66
2022/12/23 11:55:28;;;;;;;0.40;0.40;;;14.90;92.00;;;;;;5034658;28;20212;-67
2022/12/23 11:58:21;;;;;;;0.40;0.40;;;14.90;92.00;;;;;;5035280;28;20198;-67
2022/12/23 12:01:16;;;;;;;0.40;0.40;;;14.80;91.90;;;;;;5034273;28;20226;-67
2022/12/23 12:04:08;;;;;;;0.40;0.40;;;14.90;91.90;;;;;;5035516;28;20226;-67
2022/12/23 12:06:57;;;;;;;0.40;0.40;;;14.90;92.00;;;;;;5034337;28;20360;-66
2022/12/23 12:09:45;;;;;;;0.40;0.40;;;14.90;92.00;;;;;;5034092;28;20240;-68
2022/12/23 12:12:34;;;;;;;0.40;0.40;;;14.80;92.00;;;;;;5035085;28;20260;-67
2022/12/23 12:15:31;;;;;;;0.40;0.40;;;14.90;92.00;;;;;;5033679;28;20202;-67
2022/12/23 12:18:20;;;;;;;0.40;0.40;;;14.90;92.00;;;;;;5034237;28;20584;-66
2022/12/23 12:21:13;;;;;;;0.40;0.40;;;14.70;91.80;;;;;;5034073;28;20604;-68
2022/12/23 12:24:07;;;;;;;0.40;0.40;;;14.90;91.90;;;;;;5033935;28;20198;-67
2022/12/23 12:27:07;;;;;;;0.40;0.40;;;14.80;91.90;;;;;;5033739;28;20285;-67
2022/12/23 12:30:02;;;;;;;0.40;0.40;;;14.80;91.90;;;;;;5034156;28;20222;-67
2022/12/23 12:33:03;;;;;;;0.40;0.40;;;14.80;91.90;;;;;;5034816;28;20225;-66
2022/12/23 12:35:58;;;;;;;0.40;0.40;;;14.80;91.90;;;;;;5034054;28;20293;-66
2022/12/23 12:38:54;;;;;;;0.40;0.40;;;14.90;92.00;;;;;;5034475;28;20683;-66
2022/12/23 12:41:50;;;;;;;0.40;0.40;;;14.80;91.90;;;;;;5033928;28;20277;-67
2022/12/23 12:44:45;;;;;;;0.40;0.40;;;14.80;92.00;;;;;;5033927;28;20208;-70
2022/12/23 12:47:38;;;;;;;0.40;0.40;;;14.80;92.00;;;;;;5034485;28;20281;-67
2022/12/23 12:50:57;;;;;;;0.40;0.40;;;14.80;92.00;;;;;;5033114;28;20969;-68
2022/12/23 12:54:00;;;;;;;0.40;0.40;;;14.80;92.00;;;;;;5034071;28;20507;-68
2022/12/23 12:56:55;;;;;;;0.40;0.40;;;14.80;92.00;;;;;;5033690;28;20429;-67
2022/12/23 12:59:45;;;;;;;0.40;0.40;;;14.90;92.20;;;;;;5033652;28;20224;-70
2022/12/23 13:03:02;;;;;;;0.40;0.40;;;14.90;92.10;;;;;;5033815;28;20752;-67
2022/12/23 13:06:03;;;;;;;0.40;0.40;;;14.90;92.20;;;;;;5033607;28;20432;-67
2022/12/23 13:09:02;;;;;;;0.40;0.40;;;14.90;92.10;;;;;;5033641;28;20237;-69
2022/12/23 13:11:55;;;;;;;0.40;0.40;;;14.80;92.10;;;;;;5033774;28;20239;-67
2022/12/23 13:14:53;;;;;;;0.40;0.40;;;14.80;92.10;;;;;;5033383;28;20468;-67
2022/12/23 13:17:48;;;;;;;0.40;0.40;;;14.90;92.10;;;;;;5033479;28;20202;-72
2022/12/23 13:20:42;;;;;;;0.40;0.40;;;14.90;92.30;;;;;;5033677;28;20280;-68
2022/12/23 13:23:38;;;;;;;0.50;0.50;;;14.80;92.10;;;;;;5033616;28;20228;-69
2022/12/23 13:26:37;;;;;;;0.40;0.40;;;14.80;92.00;;;;;;5036721;28;20228;-67
2022/12/23 13:30:02;;;;;;;0.40;0.40;;;14.90;92.00;;;;;;5036994;28;20872;-67
2022/12/23 13:33:06;;;;;;;0.40;0.40;;;14.90;92.00;;;;;;5037186;28;20214;-68
2022/12/23 13:36:06;;;;;;;0.40;0.40;;;14.90;92.00;;;;;;5037142;28;20201;-69
2022/12/23 13:39:16;;;;;;;0.40;0.40;;;14.90;92.00;;;;;;5037374;28;20202;-70
2022/12/23 13:42:05;;;;;;;0.40;0.40;;;14.90;91.80;;;;;;5037349;28;20694;-67
2022/12/23 13:44:55;;;;;;;0.40;0.40;;;14.90;92.00;;;;;;5037211;28;20205;-67
2022/12/23 13:47:55;;;;;;;0.40;0.40;;;14.90;92.00;;;;;;5036763;28;20670;-67
2022/12/23 13:50:57;;;;;;;0.40;0.40;;;14.90;92.00;;;;;;5036706;28;20225;-67
2022/12/23 13:53:57;;;;;;;0.47;0.47;;;14.90;92.00;;;;;;5037576;28;20884;-68
2022/12/23 13:57:06;;;;;;;0.40;0.40;;;14.90;92.00;;;;;;5037310;28;20198;-67
2022/12/23 13:59:59;;;;;;;0.40;0.40;;;14.80;92.00;;;;;;5036325;28;20217;-68
2022/12/23 14:03:18;;;;;;;0.40;0.40;;;14.90;92.00;;;;;;5037161;28;20203;-66
2022/12/23 14:06:39;;;;;;;0.40;0.40;;;14.80;92.00;;;;;;5035975;28;20701;-67
2022/12/23 14:09:32;;;;;;;0.40;0.40;;;14.90;92.00;;;;;;5036590;28;20234;-70
2022/12/23 14:12:26;;;;;;;0.40;0.40;;;14.80;92.00;;;;;;5036583;28;20292;-68
2022/12/23 14:15:34;;;;;;;0.40;0.40;;;14.80;92.00;;;;;;5036809;28;20284;-68
2022/12/23 14:18:42;;;;;;;0.40;0.40;;;14.80;92.00;;;;;;5037451;28;20431;-67
2022/12/23 14:21:42;;;;;;;0.40;0.40;;;14.80;92.00;;;;;;5036989;28;20206;-69
2022/12/23 14:25:02;;;;;;;0.40;0.40;;;14.90;92.00;;;;;;5037085;28;20198;-69
2022/12/23 14:27:58;;;;;;;0.40;0.40;;;14.90;92.10;;;;;;5036221;28;20281;-68
2022/12/23 14:30:46;;;;;;;0.40;0.40;;;14.90;92.10;;;;;;5036117;28;20325;-69
2022/12/23 14:33:37;;;;;;;0.40;0.40;;;14.90;92.10;;;;;;5036812;28;20228;-67
2022/12/23 14:36:27;;;;;;;0.40;0.40;;;14.80;92.00;;;;;;5036065;28;20202;-67
2022/12/23 14:39:32;;;;;;;0.40;0.40;;;14.80;91.80;;;;;;5035600;28;20202;-68
2022/12/23 14:42:35;;;;;;;0.40;0.40;;;14.90;92.00;;;;;;5036519;28;20229;-67
2022/12/23 14:45:35;;;;;;;0.40;0.40;;;14.90;92.00;;;;;;5036003;28;20879;-67
2022/12/23 14:48:56;;;;;;;0.40;0.40;;;14.90;92.00;;;;;;5036450;28;20216;-68
2022/12/23 14:52:36;;;;;;;0.40;0.40;;;14.90;92.00;;;;;;5036088;28;20272;-67
2022/12/23 14:55:45;;;;;;;0.40;0.40;;;14.90;92.00;;;;;;5036478;28;20739;-67
2022/12/23 14:58:53;;;;;;;0.40;0.40;;;14.90;92.00;;;;;;5036483;28;20225;-67
2022/12/23 15:01:46;;;;;;;0.40;0.40;;;14.80;92.00;;;;;;5035247;28;20700;-68
2022/12/23 15:04:43;;;;;;;0.50;0.50;;;14.90;92.00;;;;;;5036236;28;20271;-68
2022/12/23 15:07:35;;;;;;;0.40;0.40;;;14.90;92.00;;;;;;5035462;28;20251;-68
2022/12/23 15:10:27;;;;;;;0.40;0.40;;;14.80;92.00;;;;;;5035070;28;20234;-71
2022/12/23 15:13:18;;;;;;;0.40;0.40;;;14.90;92.10;;;;;;5035433;28;20202;-69
2022/12/23 15:16:16;;;;;;;0.40;0.40;;;14.90;92.00;;;;;;5035302;28;20348;-66
2022/12/23 15:19:17;;;;;;;0.40;0.40;;;14.80;91.70;;;;;;5035155;28;20198;-73
2022/12/23 15:22:07;;;;;;;0.40;0.40;;;14.80;92.00;;;;;;5035384;28;20255;-69
2022/12/23 15:25:21;;;;;;;0.40;0.40;;;14.80;91.90;;;;;;5035668;28;20251;-67
2022/12/23 15:28:16;;;;;;;0.40;0.40;;;14.80;92.00;;;;;;5036023;28;20284;-70
2022/12/23 15:31:06;;;;;;;0.40;0.40;;;14.80;92.00;;;;;;5035013;28;20224;-67
2022/12/23 15:33:57;;;;;;;0.40;0.40;;;14.80;92.00;;;;;;5035554;28;20222;-69
2022/12/23 15:36:53;;;;;;;0.47;0.47;;;14.80;92.00;;;;;;5035010;28;20198;-68